sensor_id;sensor_type;location;lat;lon;timestamp;P1;durP1;ratioP1;P2;durP2;ratioP2
16173;SDS011;14031;50.158;8.626;2023-12-20T00:02:12;7.13;;;6.40;;
16173;SDS011;14031;50.158;8.626;2023-12-20T00:04:39;6.33;;;5.87;;
16173;SDS011;14031;50.158;8.626;2023-12-20T00:07:05;6.17;;;5.57;;
16173;SDS011;14031;50.158;8.626;2023-12-20T00:09:32;6.57;;;6.07;;
16173;SDS011;14031;50.158;8.626;2023-12-20T00:12:00;7.53;;;5.87;;
16173;SDS011;14031;50.158;8.626;2023-12-20T00:14:27;6.00;;;5.60;;
16173;SDS011;14031;50.158;8.626;2023-12-20T00:16:54;6.37;;;5.87;;
16173;SDS011;14031;50.158;8.626;2023-12-20T00:19:21;5.33;;;4.83;;
16173;SDS011;14031;50.158;8.626;2023-12-20T00:21:48;6.13;;;5.53;;
16173;SDS011;14031;50.158;8.626;2023-12-20T00:24:15;7.00;;;6.07;;
16173;SDS011;14031;50.158;8.626;2023-12-20T00:26:41;6.17;;;5.67;;
16173;SDS011;14031;50.158;8.626;2023-12-20T00:29:09;6.50;;;5.90;;
16173;SDS011;14031;50.158;8.626;2023-12-20T00:31:36;6.07;;;5.60;;
16173;SDS011;14031;50.158;8.626;2023-12-20T00:34:03;5.90;;;5.50;;
16173;SDS011;14031;50.158;8.626;2023-12-20T00:36:30;5.50;;;5.10;;
16173;SDS011;14031;50.158;8.626;2023-12-20T00:38:56;6.30;;;5.57;;
16173;SDS011;14031;50.158;8.626;2023-12-20T00:41:23;5.70;;;5.30;;
16173;SDS011;14031;50.158;8.626;2023-12-20T00:43:50;6.33;;;5.27;;
16173;SDS011;14031;50.158;8.626;2023-12-20T00:46:18;5.17;;;4.87;;
16173;SDS011;14031;50.158;8.626;2023-12-20T00:48:45;5.30;;;5.00;;
16173;SDS011;14031;50.158;8.626;2023-12-20T00:51:12;5.90;;;5.40;;
16173;SDS011;14031;50.158;8.626;2023-12-20T00:53:38;5.17;;;4.87;;
16173;SDS011;14031;50.158;8.626;2023-12-20T00:56:05;6.10;;;5.43;;
16173;SDS011;14031;50.158;8.626;2023-12-20T00:58:32;5.23;;;4.93;;
16173;SDS011;14031;50.158;8.626;2023-12-20T01:00:59;5.33;;;5.03;;
16173;SDS011;14031;50.158;8.626;2023-12-20T01:03:27;7.57;;;5.00;;
16173;SDS011;14031;50.158;8.626;2023-12-20T01:05:53;4.93;;;4.53;;
16173;SDS011;14031;50.158;8.626;2023-12-20T01:08:20;4.97;;;4.57;;
16173;SDS011;14031;50.158;8.626;2023-12-20T01:10:47;4.97;;;4.67;;
16173;SDS011;14031;50.158;8.626;2023-12-20T01:13:14;5.20;;;4.83;;
16173;SDS011;14031;50.158;8.626;2023-12-20T01:15:40;5.33;;;4.40;;
16173;SDS011;14031;50.158;8.626;2023-12-20T01:18:07;5.07;;;4.77;;
16173;SDS011;14031;50.158;8.626;2023-12-20T01:20:35;5.00;;;4.70;;
16173;SDS011;14031;50.158;8.626;2023-12-20T01:23:02;5.20;;;4.80;;
16173;SDS011;14031;50.158;8.626;2023-12-20T01:25:29;4.47;;;4.17;;
16173;SDS011;14031;50.158;8.626;2023-12-20T01:27:56;4.63;;;4.33;;
16173;SDS011;14031;50.158;8.626;2023-12-20T01:30:23;4.90;;;4.60;;
16173;SDS011;14031;50.158;8.626;2023-12-20T01:32:49;4.90;;;4.50;;
16173;SDS011;14031;50.158;8.626;2023-12-20T01:35:16;4.63;;;4.23;;
16173;SDS011;14031;50.158;8.626;2023-12-20T01:37:44;4.23;;;3.93;;
16173;SDS011;14031;50.158;8.626;2023-12-20T01:40:10;4.57;;;4.33;;
16173;SDS011;14031;50.158;8.626;2023-12-20T01:42:37;5.50;;;4.53;;
16173;SDS011;14031;50.158;8.626;2023-12-20T01:45:04;4.80;;;4.37;;
16173;SDS011;14031;50.158;8.626;2023-12-20T01:47:31;3.93;;;3.73;;
16173;SDS011;14031;50.158;8.626;2023-12-20T01:49:58;4.80;;;4.50;;
16173;SDS011;14031;50.158;8.626;2023-12-20T01:52:25;4.60;;;4.20;;
16173;SDS011;14031;50.158;8.626;2023-12-20T01:54:54;4.33;;;4.13;;
16173;SDS011;14031;50.158;8.626;2023-12-20T01:57:27;4.67;;;4.27;;
16173;SDS011;14031;50.158;8.626;2023-12-20T01:59:54;3.97;;;3.77;;
16173;SDS011;14031;50.158;8.626;2023-12-20T02:02:22;4.80;;;4.43;;
16173;SDS011;14031;50.158;8.626;2023-12-20T02:04:49;4.50;;;4.10;;
16173;SDS011;14031;50.158;8.626;2023-12-20T02:07:16;5.07;;;4.13;;
16173;SDS011;14031;50.158;8.626;2023-12-20T02:09:44;4.30;;;4.00;;
16173;SDS011;14031;50.158;8.626;2023-12-20T02:12:12;5.37;;;4.40;;
16173;SDS011;14031;50.158;8.626;2023-12-20T02:14:39;4.10;;;3.87;;
16173;SDS011;14031;50.158;8.626;2023-12-20T02:17:06;3.87;;;3.67;;
16173;SDS011;14031;50.158;8.626;2023-12-20T02:19:32;3.87;;;3.67;;
16173;SDS011;14031;50.158;8.626;2023-12-20T02:22:08;4.40;;;4.07;;
16173;SDS011;14031;50.158;8.626;2023-12-20T02:24:35;4.10;;;3.90;;
16173;SDS011;14031;50.158;8.626;2023-12-20T02:27:02;4.40;;;4.10;;
16173;SDS011;14031;50.158;8.626;2023-12-20T02:29:30;4.20;;;3.80;;
16173;SDS011;14031;50.158;8.626;2023-12-20T02:31:57;4.40;;;4.10;;
16173;SDS011;14031;50.158;8.626;2023-12-20T02:34:24;4.57;;;4.27;;
16173;SDS011;14031;50.158;8.626;2023-12-20T02:36:50;4.47;;;4.17;;
16173;SDS011;14031;50.158;8.626;2023-12-20T02:39:19;4.43;;;4.13;;
16173;SDS011;14031;50.158;8.626;2023-12-20T02:41:47;4.00;;;3.73;;
16173;SDS011;14031;50.158;8.626;2023-12-20T02:44:15;4.10;;;3.90;;
16173;SDS011;14031;50.158;8.626;2023-12-20T02:46:41;4.03;;;3.83;;
16173;SDS011;14031;50.158;8.626;2023-12-20T02:49:08;4.40;;;4.10;;
16173;SDS011;14031;50.158;8.626;2023-12-20T02:51:35;4.23;;;3.93;;
16173;SDS011;14031;50.158;8.626;2023-12-20T02:54:03;4.40;;;4.10;;
16173;SDS011;14031;50.158;8.626;2023-12-20T02:56:31;3.57;;;3.37;;
16173;SDS011;14031;50.158;8.626;2023-12-20T02:58:58;3.77;;;3.57;;
16173;SDS011;14031;50.158;8.626;2023-12-20T03:01:25;3.77;;;3.57;;
16173;SDS011;14031;50.158;8.626;2023-12-20T03:03:52;4.40;;;4.10;;
16173;SDS011;14031;50.158;8.626;2023-12-20T03:06:19;4.70;;;4.30;;
16173;SDS011;14031;50.158;8.626;2023-12-20T03:08:46;3.83;;;3.63;;
16173;SDS011;14031;50.158;8.626;2023-12-20T03:11:13;3.70;;;3.50;;
16173;SDS011;14031;50.158;8.626;2023-12-20T03:13:41;5.40;;;4.00;;
16173;SDS011;14031;50.158;8.626;2023-12-20T03:16:08;4.27;;;3.97;;
16173;SDS011;14031;50.158;8.626;2023-12-20T03:18:35;4.67;;;4.33;;
16173;SDS011;14031;50.158;8.626;2023-12-20T03:21:02;4.60;;;4.30;;
16173;SDS011;14031;50.158;8.626;2023-12-20T03:23:29;4.10;;;3.90;;
16173;SDS011;14031;50.158;8.626;2023-12-20T03:25:57;4.40;;;4.10;;
16173;SDS011;14031;50.158;8.626;2023-12-20T03:28:24;4.87;;;4.57;;
16173;SDS011;14031;50.158;8.626;2023-12-20T03:30:53;4.63;;;4.33;;
16173;SDS011;14031;50.158;8.626;2023-12-20T03:33:20;4.50;;;4.20;;
16173;SDS011;14031;50.158;8.626;2023-12-20T03:35:46;4.00;;;3.80;;
16173;SDS011;14031;50.158;8.626;2023-12-20T03:38:13;4.17;;;3.93;;
16173;SDS011;14031;50.158;8.626;2023-12-20T03:40:40;4.47;;;4.17;;
16173;SDS011;14031;50.158;8.626;2023-12-20T03:43:07;4.27;;;4.07;;
16173;SDS011;14031;50.158;8.626;2023-12-20T03:45:33;4.67;;;4.27;;
16173;SDS011;14031;50.158;8.626;2023-12-20T03:48:01;4.80;;;4.40;;
16173;SDS011;14031;50.158;8.626;2023-12-20T03:50:28;4.43;;;4.13;;
16173;SDS011;14031;50.158;8.626;2023-12-20T03:52:55;4.23;;;3.93;;
16173;SDS011;14031;50.158;8.626;2023-12-20T03:55:22;4.63;;;4.23;;
16173;SDS011;14031;50.158;8.626;2023-12-20T03:57:48;4.10;;;3.80;;
16173;SDS011;14031;50.158;8.626;2023-12-20T04:00:15;4.00;;;3.70;;
16173;SDS011;14031;50.158;8.626;2023-12-20T04:02:42;3.37;;;3.17;;
16173;SDS011;14031;50.158;8.626;2023-12-20T04:05:10;3.43;;;3.23;;
16173;SDS011;14031;50.158;8.626;2023-12-20T04:07:37;3.57;;;3.37;;
16173;SDS011;14031;50.158;8.626;2023-12-20T04:10:05;3.30;;;3.10;;
16173;SDS011;14031;50.158;8.626;2023-12-20T04:12:33;3.13;;;2.93;;
16173;SDS011;14031;50.158;8.626;2023-12-20T04:14:59;3.80;;;3.50;;
16173;SDS011;14031;50.158;8.626;2023-12-20T04:17:28;3.43;;;3.17;;
16173;SDS011;14031;50.158;8.626;2023-12-20T04:19:55;3.17;;;3.03;;
16173;SDS011;14031;50.158;8.626;2023-12-20T04:22:23;3.20;;;3.00;;
16173;SDS011;14031;50.158;8.626;2023-12-20T04:24:50;3.40;;;2.97;;
16173;SDS011;14031;50.158;8.626;2023-12-20T04:27:16;3.40;;;3.20;;
16173;SDS011;14031;50.158;8.626;2023-12-20T04:29:43;3.33;;;3.13;;
16173;SDS011;14031;50.158;8.626;2023-12-20T04:32:10;3.17;;;3.03;;
16173;SDS011;14031;50.158;8.626;2023-12-20T04:34:37;3.87;;;3.67;;
16173;SDS011;14031;50.158;8.626;2023-12-20T04:37:03;3.53;;;3.30;;
16173;SDS011;14031;50.158;8.626;2023-12-20T04:39:31;3.50;;;3.20;;
16173;SDS011;14031;50.158;8.626;2023-12-20T04:41:58;4.17;;;3.13;;
16173;SDS011;14031;50.158;8.626;2023-12-20T04:44:25;4.00;;;3.57;;
16173;SDS011;14031;50.158;8.626;2023-12-20T04:46:51;3.43;;;3.23;;
16173;SDS011;14031;50.158;8.626;2023-12-20T04:49:18;3.93;;;3.60;;
16173;SDS011;14031;50.158;8.626;2023-12-20T04:51:45;4.60;;;3.60;;
16173;SDS011;14031;50.158;8.626;2023-12-20T04:54:12;3.60;;;3.40;;
16173;SDS011;14031;50.158;8.626;2023-12-20T04:56:40;5.00;;;4.03;;
16173;SDS011;14031;50.158;8.626;2023-12-20T04:59:07;4.60;;;4.20;;
16173;SDS011;14031;50.158;8.626;2023-12-20T05:01:34;4.03;;;3.63;;
16173;SDS011;14031;50.158;8.626;2023-12-20T05:04:01;4.67;;;3.97;;
16173;SDS011;14031;50.158;8.626;2023-12-20T05:06:28;3.87;;;3.57;;
16173;SDS011;14031;50.158;8.626;2023-12-20T05:08:54;3.40;;;3.10;;
16173;SDS011;14031;50.158;8.626;2023-12-20T05:11:21;3.40;;;2.70;;
16173;SDS011;14031;50.158;8.626;2023-12-20T05:13:49;3.47;;;2.70;;
16173;SDS011;14031;50.158;8.626;2023-12-20T05:16:16;2.93;;;2.80;;
16173;SDS011;14031;50.158;8.626;2023-12-20T05:18:44;3.03;;;2.90;;
16173;SDS011;14031;50.158;8.626;2023-12-20T05:21:11;3.30;;;3.00;;
16173;SDS011;14031;50.158;8.626;2023-12-20T05:23:38;3.30;;;3.00;;
16173;SDS011;14031;50.158;8.626;2023-12-20T05:26:04;2.43;;;2.33;;
16173;SDS011;14031;50.158;8.626;2023-12-20T05:28:31;2.63;;;2.23;;
16173;SDS011;14031;50.158;8.626;2023-12-20T05:30:59;4.03;;;2.40;;
16173;SDS011;14031;50.158;8.626;2023-12-20T05:33:26;4.33;;;2.50;;
16173;SDS011;14031;50.158;8.626;2023-12-20T05:35:53;2.80;;;2.53;;
16173;SDS011;14031;50.158;8.626;2023-12-20T05:38:20;2.40;;;2.20;;
16173;SDS011;14031;50.158;8.626;2023-12-20T05:40:46;5.63;;;2.40;;
16173;SDS011;14031;50.158;8.626;2023-12-20T05:43:13;6.43;;;4.60;;
16173;SDS011;14031;50.158;8.626;2023-12-20T05:45:40;3.47;;;2.10;;
16173;SDS011;14031;50.158;8.626;2023-12-20T05:48:08;2.50;;;2.30;;
16173;SDS011;14031;50.158;8.626;2023-12-20T05:50:35;3.13;;;1.90;;
16173;SDS011;14031;50.158;8.626;2023-12-20T05:53:02;4.80;;;2.00;;
16173;SDS011;14031;50.158;8.626;2023-12-20T05:55:29;4.03;;;1.97;;
16173;SDS011;14031;50.158;8.626;2023-12-20T05:57:55;6.27;;;2.20;;
16173;SDS011;14031;50.158;8.626;2023-12-20T06:00:22;2.10;;;1.57;;
16173;SDS011;14031;50.158;8.626;2023-12-20T06:02:50;6.67;;;2.87;;
16173;SDS011;14031;50.158;8.626;2023-12-20T06:05:18;2.00;;;1.90;;
16173;SDS011;14031;50.158;8.626;2023-12-20T06:07:45;7.97;;;2.13;;
16173;SDS011;14031;50.158;8.626;2023-12-20T06:10:13;1.97;;;1.67;;
16173;SDS011;14031;50.158;8.626;2023-12-20T06:12:40;1.90;;;1.70;;
16173;SDS011;14031;50.158;8.626;2023-12-20T06:15:07;3.07;;;1.43;;
16173;SDS011;14031;50.158;8.626;2023-12-20T06:17:34;2.10;;;1.60;;
16173;SDS011;14031;50.158;8.626;2023-12-20T06:20:01;6.90;;;1.53;;
16173;SDS011;14031;50.158;8.626;2023-12-20T06:22:33;2.27;;;1.53;;
16173;SDS011;14031;50.158;8.626;2023-12-20T06:25:00;5.77;;;1.60;;
16173;SDS011;14031;50.158;8.626;2023-12-20T06:27:28;2.00;;;1.90;;
16173;SDS011;14031;50.158;8.626;2023-12-20T06:29:54;1.57;;;1.47;;
16173;SDS011;14031;50.158;8.626;2023-12-20T06:32:21;4.67;;;2.50;;
16173;SDS011;14031;50.158;8.626;2023-12-20T06:34:49;6.00;;;2.37;;
16173;SDS011;14031;50.158;8.626;2023-12-20T06:37:16;2.57;;;2.20;;
16173;SDS011;14031;50.158;8.626;2023-12-20T06:39:44;3.97;;;2.20;;
16173;SDS011;14031;50.158;8.626;2023-12-20T06:42:11;4.53;;;3.03;;
16173;SDS011;14031;50.158;8.626;2023-12-20T06:44:38;3.57;;;2.97;;
16173;SDS011;14031;50.158;8.626;2023-12-20T06:47:05;4.50;;;2.60;;
16173;SDS011;14031;50.158;8.626;2023-12-20T06:49:31;10.03;;;3.03;;
16173;SDS011;14031;50.158;8.626;2023-12-20T06:51:58;4.07;;;2.50;;
16173;SDS011;14031;50.158;8.626;2023-12-20T06:54:25;7.33;;;3.63;;
16173;SDS011;14031;50.158;8.626;2023-12-20T06:56:53;3.47;;;2.90;;
16173;SDS011;14031;50.158;8.626;2023-12-20T06:59:20;8.27;;;3.40;;
16173;SDS011;14031;50.158;8.626;2023-12-20T07:01:47;3.57;;;3.27;;
16173;SDS011;14031;50.158;8.626;2023-12-20T07:04:15;5.47;;;3.00;;
16173;SDS011;14031;50.158;8.626;2023-12-20T07:06:42;2.83;;;2.73;;
16173;SDS011;14031;50.158;8.626;2023-12-20T07:09:09;10.43;;;2.40;;
16173;SDS011;14031;50.158;8.626;2023-12-20T07:11:38;16.33;;;2.80;;
16173;SDS011;14031;50.158;8.626;2023-12-20T07:14:06;3.67;;;2.70;;
16173;SDS011;14031;50.158;8.626;2023-12-20T07:16:33;8.27;;;3.10;;
16173;SDS011;14031;50.158;8.626;2023-12-20T07:19:01;3.00;;;2.60;;
16173;SDS011;14031;50.158;8.626;2023-12-20T07:21:28;3.60;;;2.60;;
16173;SDS011;14031;50.158;8.626;2023-12-20T07:23:55;7.10;;;3.63;;
16173;SDS011;14031;50.158;8.626;2023-12-20T07:26:21;6.73;;;2.53;;
16173;SDS011;14031;50.158;8.626;2023-12-20T07:28:48;4.60;;;2.60;;
16173;SDS011;14031;50.158;8.626;2023-12-20T07:31:17;3.97;;;2.20;;
16173;SDS011;14031;50.158;8.626;2023-12-20T07:33:43;3.60;;;3.30;;
16173;SDS011;14031;50.158;8.626;2023-12-20T07:36:10;7.47;;;4.40;;
16173;SDS011;14031;50.158;8.626;2023-12-20T07:38:38;12.67;;;4.30;;
16173;SDS011;14031;50.158;8.626;2023-12-20T07:41:08;7.97;;;3.27;;
16173;SDS011;14031;50.158;8.626;2023-12-20T07:43:35;3.60;;;2.83;;
16173;SDS011;14031;50.158;8.626;2023-12-20T07:46:05;5.40;;;2.47;;
16173;SDS011;14031;50.158;8.626;2023-12-20T07:48:33;7.33;;;3.13;;
16173;SDS011;14031;50.158;8.626;2023-12-20T07:51:01;3.83;;;3.27;;
16173;SDS011;14031;50.158;8.626;2023-12-20T07:53:28;7.00;;;3.30;;
16173;SDS011;14031;50.158;8.626;2023-12-20T07:55:55;3.97;;;2.83;;
16173;SDS011;14031;50.158;8.626;2023-12-20T07:58:22;6.77;;;2.57;;
16173;SDS011;14031;50.158;8.626;2023-12-20T08:00:48;3.03;;;2.80;;
16173;SDS011;14031;50.158;8.626;2023-12-20T08:03:15;7.87;;;2.30;;
16173;SDS011;14031;50.158;8.626;2023-12-20T08:05:43;8.73;;;2.63;;
16173;SDS011;14031;50.158;8.626;2023-12-20T08:08:10;4.50;;;2.10;;
16173;SDS011;14031;50.158;8.626;2023-12-20T08:10:37;3.97;;;2.30;;
16173;SDS011;14031;50.158;8.626;2023-12-20T08:13:03;5.80;;;2.20;;
16173;SDS011;14031;50.158;8.626;2023-12-20T08:15:30;2.30;;;2.10;;
16173;SDS011;14031;50.158;8.626;2023-12-20T08:17:57;4.70;;;2.60;;
16173;SDS011;14031;50.158;8.626;2023-12-20T08:20:23;2.83;;;2.50;;
16173;SDS011;14031;50.158;8.626;2023-12-20T08:22:52;3.87;;;2.37;;
16173;SDS011;14031;50.158;8.626;2023-12-20T08:25:18;4.10;;;2.50;;
16173;SDS011;14031;50.158;8.626;2023-12-20T08:27:45;5.23;;;2.20;;
16173;SDS011;14031;50.158;8.626;2023-12-20T08:30:12;2.83;;;1.97;;
16173;SDS011;14031;50.158;8.626;2023-12-20T08:32:39;3.87;;;1.87;;
16173;SDS011;14031;50.158;8.626;2023-12-20T08:35:06;4.20;;;2.00;;
16173;SDS011;14031;50.158;8.626;2023-12-20T08:37:33;6.73;;;2.60;;
16173;SDS011;14031;50.158;8.626;2023-12-20T08:40:02;3.37;;;2.10;;
16173;SDS011;14031;50.158;8.626;2023-12-20T08:42:29;3.03;;;2.17;;
16173;SDS011;14031;50.158;8.626;2023-12-20T08:44:56;3.23;;;2.53;;
16173;SDS011;14031;50.158;8.626;2023-12-20T08:47:24;3.47;;;2.27;;
16173;SDS011;14031;50.158;8.626;2023-12-20T08:49:50;4.00;;;2.03;;
16173;SDS011;14031;50.158;8.626;2023-12-20T08:52:21;4.93;;;2.63;;
16173;SDS011;14031;50.158;8.626;2023-12-20T08:54:48;4.10;;;2.37;;
16173;SDS011;14031;50.158;8.626;2023-12-20T08:57:18;3.73;;;2.17;;
16173;SDS011;14031;50.158;8.626;2023-12-20T08:59:45;5.27;;;2.13;;
16173;SDS011;14031;50.158;8.626;2023-12-20T09:02:12;2.40;;;2.23;;
16173;SDS011;14031;50.158;8.626;2023-12-20T09:04:40;4.27;;;2.43;;
16173;SDS011;14031;50.158;8.626;2023-12-20T09:07:07;4.93;;;2.30;;
16173;SDS011;14031;50.158;8.626;2023-12-20T09:09:46;7.50;;;2.50;;
16173;SDS011;14031;50.158;8.626;2023-12-20T09:12:13;4.40;;;2.50;;
16173;SDS011;14031;50.158;8.626;2023-12-20T09:14:41;6.53;;;2.50;;
16173;SDS011;14031;50.158;8.626;2023-12-20T09:17:08;6.47;;;2.50;;
16173;SDS011;14031;50.158;8.626;2023-12-20T09:19:36;4.30;;;2.13;;
16173;SDS011;14031;50.158;8.626;2023-12-20T09:22:03;2.57;;;1.90;;
16173;SDS011;14031;50.158;8.626;2023-12-20T09:24:30;5.07;;;2.37;;
16173;SDS011;14031;50.158;8.626;2023-12-20T09:26:57;2.73;;;2.37;;
16173;SDS011;14031;50.158;8.626;2023-12-20T09:29:24;3.27;;;2.40;;
16173;SDS011;14031;50.158;8.626;2023-12-20T09:31:52;4.47;;;2.63;;
16173;SDS011;14031;50.158;8.626;2023-12-20T09:34:18;9.03;;;2.20;;
16173;SDS011;14031;50.158;8.626;2023-12-20T09:36:46;4.13;;;1.97;;
16173;SDS011;14031;50.158;8.626;2023-12-20T09:39:13;2.60;;;2.40;;
16173;SDS011;14031;50.158;8.626;2023-12-20T09:41:41;2.90;;;2.40;;
16173;SDS011;14031;50.158;8.626;2023-12-20T09:44:09;2.80;;;2.10;;
16173;SDS011;14031;50.158;8.626;2023-12-20T09:46:40;5.90;;;2.50;;
16173;SDS011;14031;50.158;8.626;2023-12-20T09:49:12;6.53;;;3.00;;
16173;SDS011;14031;50.158;8.626;2023-12-20T09:51:40;8.87;;;2.67;;
16173;SDS011;14031;50.158;8.626;2023-12-20T09:54:07;9.43;;;2.47;;
16173;SDS011;14031;50.158;8.626;2023-12-20T09:56:35;8.53;;;2.73;;
16173;SDS011;14031;50.158;8.626;2023-12-20T09:59:03;4.87;;;2.63;;
16173;SDS011;14031;50.158;8.626;2023-12-20T10:01:30;4.10;;;2.57;;
16173;SDS011;14031;50.158;8.626;2023-12-20T10:03:57;6.30;;;2.50;;
16173;SDS011;14031;50.158;8.626;2023-12-20T10:06:28;5.47;;;2.40;;
16173;SDS011;14031;50.158;8.626;2023-12-20T10:08:54;9.67;;;2.60;;
16173;SDS011;14031;50.158;8.626;2023-12-20T10:11:21;3.03;;;2.77;;
16173;SDS011;14031;50.158;8.626;2023-12-20T10:13:49;5.57;;;2.40;;
16173;SDS011;14031;50.158;8.626;2023-12-20T10:16:16;4.80;;;2.40;;
16173;SDS011;14031;50.158;8.626;2023-12-20T10:18:43;2.87;;;2.23;;
16173;SDS011;14031;50.158;8.626;2023-12-20T10:21:11;3.87;;;2.27;;
16173;SDS011;14031;50.158;8.626;2023-12-20T10:23:39;7.03;;;2.43;;
16173;SDS011;14031;50.158;8.626;2023-12-20T10:26:06;4.87;;;2.17;;
16173;SDS011;14031;50.158;8.626;2023-12-20T10:28:34;5.70;;;2.33;;
16173;SDS011;14031;50.158;8.626;2023-12-20T10:31:02;7.73;;;2.37;;
16173;SDS011;14031;50.158;8.626;2023-12-20T10:33:30;4.20;;;2.50;;
16173;SDS011;14031;50.158;8.626;2023-12-20T10:35:58;7.13;;;2.50;;
16173;SDS011;14031;50.158;8.626;2023-12-20T10:38:25;5.40;;;2.47;;
16173;SDS011;14031;50.158;8.626;2023-12-20T10:40:57;4.40;;;2.30;;
16173;SDS011;14031;50.158;8.626;2023-12-20T10:43:24;4.50;;;2.60;;
16173;SDS011;14031;50.158;8.626;2023-12-20T10:45:52;4.70;;;2.80;;
16173;SDS011;14031;50.158;8.626;2023-12-20T10:48:19;4.50;;;2.00;;
16173;SDS011;14031;50.158;8.626;2023-12-20T10:50:47;3.03;;;2.20;;
16173;SDS011;14031;50.158;8.626;2023-12-20T10:53:15;3.93;;;2.37;;
16173;SDS011;14031;50.158;8.626;2023-12-20T10:55:42;11.50;;;2.60;;
16173;SDS011;14031;50.158;8.626;2023-12-20T10:58:11;5.13;;;2.30;;
16173;SDS011;14031;50.158;8.626;2023-12-20T11:00:40;5.27;;;2.63;;
16173;SDS011;14031;50.158;8.626;2023-12-20T11:03:09;2.80;;;2.30;;
16173;SDS011;14031;50.158;8.626;2023-12-20T11:05:38;3.50;;;2.27;;
16173;SDS011;14031;50.158;8.626;2023-12-20T11:08:12;7.60;;;2.30;;
16173;SDS011;14031;50.158;8.626;2023-12-20T11:10:43;2.50;;;2.30;;
16173;SDS011;14031;50.158;8.626;2023-12-20T11:13:20;4.83;;;2.80;;
16173;SDS011;14031;50.158;8.626;2023-12-20T11:15:48;2.93;;;2.33;;
16173;SDS011;14031;50.158;8.626;2023-12-20T11:18:15;10.27;;;2.43;;
16173;SDS011;14031;50.158;8.626;2023-12-20T11:20:42;4.27;;;2.70;;
16173;SDS011;14031;50.158;8.626;2023-12-20T11:23:09;9.00;;;2.87;;
16173;SDS011;14031;50.158;8.626;2023-12-20T11:25:48;5.57;;;2.40;;
16173;SDS011;14031;50.158;8.626;2023-12-20T11:28:23;7.37;;;3.13;;
16173;SDS011;14031;50.158;8.626;2023-12-20T11:30:50;6.73;;;1.83;;
16173;SDS011;14031;50.158;8.626;2023-12-20T11:33:21;8.27;;;2.30;;
16173;SDS011;14031;50.158;8.626;2023-12-20T11:35:48;3.83;;;1.60;;
16173;SDS011;14031;50.158;8.626;2023-12-20T11:38:15;2.80;;;1.80;;
16173;SDS011;14031;50.158;8.626;2023-12-20T11:40:42;6.33;;;1.40;;
16173;SDS011;14031;50.158;8.626;2023-12-20T11:43:09;3.67;;;1.70;;
16173;SDS011;14031;50.158;8.626;2023-12-20T11:45:37;3.37;;;1.90;;
16173;SDS011;14031;50.158;8.626;2023-12-20T11:48:16;3.17;;;1.70;;
16173;SDS011;14031;50.158;8.626;2023-12-20T11:50:44;2.13;;;1.43;;
16173;SDS011;14031;50.158;8.626;2023-12-20T11:53:11;1.83;;;1.63;;
16173;SDS011;14031;50.158;8.626;2023-12-20T11:55:38;8.17;;;1.90;;
16173;SDS011;14031;50.158;8.626;2023-12-20T11:58:04;4.27;;;1.80;;
16173;SDS011;14031;50.158;8.626;2023-12-20T12:00:31;6.47;;;2.03;;
16173;SDS011;14031;50.158;8.626;2023-12-20T12:02:59;3.97;;;1.70;;
16173;SDS011;14031;50.158;8.626;2023-12-20T12:05:28;5.27;;;1.70;;
16173;SDS011;14031;50.158;8.626;2023-12-20T12:07:56;5.67;;;1.57;;
16173;SDS011;14031;50.158;8.626;2023-12-20T12:10:23;6.33;;;1.70;;
16173;SDS011;14031;50.158;8.626;2023-12-20T12:12:50;4.97;;;1.80;;
16173;SDS011;14031;50.158;8.626;2023-12-20T12:15:17;2.07;;;1.63;;
16173;SDS011;14031;50.158;8.626;2023-12-20T12:17:43;3.43;;;2.00;;
16173;SDS011;14031;50.158;8.626;2023-12-20T12:20:11;1.70;;;1.40;;
16173;SDS011;14031;50.158;8.626;2023-12-20T12:22:38;2.47;;;1.57;;
16173;SDS011;14031;50.158;8.626;2023-12-20T12:25:12;2.33;;;1.43;;
16173;SDS011;14031;50.158;8.626;2023-12-20T12:27:39;3.40;;;1.80;;
16173;SDS011;14031;50.158;8.626;2023-12-20T12:30:07;3.13;;;1.77;;
16173;SDS011;14031;50.158;8.626;2023-12-20T12:32:38;4.30;;;1.90;;
16173;SDS011;14031;50.158;8.626;2023-12-20T12:35:06;4.77;;;1.70;;
16173;SDS011;14031;50.158;8.626;2023-12-20T12:37:36;3.67;;;1.53;;
16173;SDS011;14031;50.158;8.626;2023-12-20T12:40:04;4.70;;;1.77;;
16173;SDS011;14031;50.158;8.626;2023-12-20T12:42:32;5.50;;;1.73;;
16173;SDS011;14031;50.158;8.626;2023-12-20T12:44:59;3.70;;;1.90;;
16173;SDS011;14031;50.158;8.626;2023-12-20T12:47:25;5.80;;;1.80;;
16173;SDS011;14031;50.158;8.626;2023-12-20T12:49:52;5.40;;;2.00;;
16173;SDS011;14031;50.158;8.626;2023-12-20T12:52:19;5.70;;;1.60;;
16173;SDS011;14031;50.158;8.626;2023-12-20T12:54:47;3.33;;;1.90;;
16173;SDS011;14031;50.158;8.626;2023-12-20T12:57:15;3.47;;;1.83;;
16173;SDS011;14031;50.158;8.626;2023-12-20T12:59:42;3.67;;;2.00;;
16173;SDS011;14031;50.158;8.626;2023-12-20T13:02:10;2.33;;;1.80;;
16173;SDS011;14031;50.158;8.626;2023-12-20T13:04:38;7.03;;;2.20;;
16173;SDS011;14031;50.158;8.626;2023-12-20T13:07:05;5.03;;;2.10;;
16173;SDS011;14031;50.158;8.626;2023-12-20T13:09:32;5.27;;;2.10;;
16173;SDS011;14031;50.158;8.626;2023-12-20T13:12:00;2.57;;;1.60;;
16173;SDS011;14031;50.158;8.626;2023-12-20T13:14:28;3.03;;;2.33;;
16173;SDS011;14031;50.158;8.626;2023-12-20T13:16:55;4.53;;;1.73;;
16173;SDS011;14031;50.158;8.626;2023-12-20T13:19:22;2.83;;;1.93;;
16173;SDS011;14031;50.158;8.626;2023-12-20T13:21:49;4.40;;;1.93;;
16173;SDS011;14031;50.158;8.626;2023-12-20T13:24:15;3.53;;;1.80;;
16173;SDS011;14031;50.158;8.626;2023-12-20T13:26:43;3.83;;;1.90;;
16173;SDS011;14031;50.158;8.626;2023-12-20T13:29:12;2.13;;;1.80;;
16173;SDS011;14031;50.158;8.626;2023-12-20T13:31:38;2.60;;;1.67;;
16173;SDS011;14031;50.158;8.626;2023-12-20T13:34:06;4.90;;;1.80;;
16173;SDS011;14031;50.158;8.626;2023-12-20T13:36:32;3.63;;;2.00;;
16173;SDS011;14031;50.158;8.626;2023-12-20T13:38:59;5.80;;;2.00;;
16173;SDS011;14031;50.158;8.626;2023-12-20T13:41:28;2.03;;;1.73;;
16173;SDS011;14031;50.158;8.626;2023-12-20T13:43:55;4.83;;;2.00;;
16173;SDS011;14031;50.158;8.626;2023-12-20T13:46:23;2.20;;;1.90;;
16173;SDS011;14031;50.158;8.626;2023-12-20T13:48:50;4.67;;;1.60;;
16173;SDS011;14031;50.158;8.626;2023-12-20T13:51:16;7.13;;;2.13;;
16173;SDS011;14031;50.158;8.626;2023-12-20T13:53:44;5.87;;;2.03;;
16173;SDS011;14031;50.158;8.626;2023-12-20T13:56:10;2.73;;;2.07;;
16173;SDS011;14031;50.158;8.626;2023-12-20T13:58:37;2.67;;;2.37;;
16173;SDS011;14031;50.158;8.626;2023-12-20T14:01:04;7.10;;;2.13;;
16173;SDS011;14031;50.158;8.626;2023-12-20T14:03:33;2.70;;;2.03;;
16173;SDS011;14031;50.158;8.626;2023-12-20T14:06:00;5.17;;;1.97;;
16173;SDS011;14031;50.158;8.626;2023-12-20T14:08:27;5.20;;;2.10;;
16173;SDS011;14031;50.158;8.626;2023-12-20T14:10:54;3.93;;;2.10;;
16173;SDS011;14031;50.158;8.626;2023-12-20T14:13:21;4.57;;;2.30;;
16173;SDS011;14031;50.158;8.626;2023-12-20T14:15:47;3.53;;;2.17;;
16173;SDS011;14031;50.158;8.626;2023-12-20T14:18:14;2.33;;;1.50;;
16173;SDS011;14031;50.158;8.626;2023-12-20T14:20:43;2.90;;;1.70;;
16173;SDS011;14031;50.158;8.626;2023-12-20T14:23:12;2.67;;;1.63;;
16173;SDS011;14031;50.158;8.626;2023-12-20T14:25:40;3.03;;;1.60;;
16173;SDS011;14031;50.158;8.626;2023-12-20T14:28:07;2.03;;;1.80;;
16173;SDS011;14031;50.158;8.626;2023-12-20T14:30:35;2.37;;;1.67;;
16173;SDS011;14031;50.158;8.626;2023-12-20T14:33:03;4.33;;;1.63;;
16173;SDS011;14031;50.158;8.626;2023-12-20T14:35:30;2.70;;;1.57;;
16173;SDS011;14031;50.158;8.626;2023-12-20T14:37:59;1.60;;;1.50;;
16173;SDS011;14031;50.158;8.626;2023-12-20T14:40:26;1.60;;;1.50;;
16173;SDS011;14031;50.158;8.626;2023-12-20T14:42:52;2.20;;;2.03;;
16173;SDS011;14031;50.158;8.626;2023-12-20T14:45:19;4.30;;;1.70;;
16173;SDS011;14031;50.158;8.626;2023-12-20T14:47:46;2.57;;;1.47;;
16173;SDS011;14031;50.158;8.626;2023-12-20T14:50:14;3.77;;;1.40;;